Decoded Metar for LFMV (AVIGNON in FRANCE) (IATA:AVN) | Meteo·Mobile Aviation Weather
aviador You're here:

LFMV Decoded Metar

AVIGNON in FRANCE
Report Time2018-08-21 07:30:00
UTC Time2018-08-21 07:51:28
Flight Rules vfr VFR
Wind360° at 06 kt
W.Decomp.*RWY 35: 5.9 kt HW 0.9 kt RCW
Visibility9999 m
Phenomena:N/A
Clouds:N/A
Expected CloudBase > 2,400 ft AGL from Temp-Dew spread
CeilingNone
Temp24°C (ISA +9)
Dew Point18°C (69% RH)
QNH1016 hPa
Density Alt1,371 ft
Elevation125 ft
Report Wrong Elevation
Raw Report
LFMV 210730Z AUTO 36006KT CAVOK 24/18 Q1016 NOSIG=

Extra information for LFMV:More info

Metar Taf Metar & Taf Last 4 Metars F.Rules Stats Wind Profile Meteogram Temp Stats Airport Information Weather charts Add Link Nearby VenuesMetar ALERT Operation Metar Decoded Social comments